RTV4X LPVL-LPVL
Flight info
| Callsign | RTV4X |
|---|---|
| Flight time | N/A |
| Altitude | 4000 |
| Route | DCT AGUED DCT OVAR DCT TAROC DCT VREAL DCT |
| Aircraft | P06T/L-SDGRY/SB1 |
Departure
| Time | 2026-05-06 10:38 |
|---|---|
| Airport | Vilar de Luz Airfield (LPVL) |
Arrival
| Time | N/A |
|---|---|
| Airport | Vilar de Luz Airfield (LPVL) |
| Time | Latitude | Longitude | Altitude | Speed | Heading |
|---|---|---|---|---|---|
| 2026-05-06 10:14 | 41.27911 | -8.51851 | 743 ft | 0 kts | 245° |
| 2026-05-06 10:25 | 41.27910 | -8.51853 | 743 ft | 0 kts | 244° |
| 2026-05-06 10:26 | 41.27902 | -8.51859 | 743 ft | 4 kts | 173° |
| 2026-05-06 10:26 | 41.27906 | -8.51825 | 743 ft | 1 kts | 70° |
| 2026-05-06 10:26 | 41.27900 | -8.51806 | 743 ft | 4 kts | 154° |
| 2026-05-06 10:26 | 41.27856 | -8.51780 | 743 ft | 9 kts | 153° |
| 2026-05-06 10:27 | 41.27789 | -8.51738 | 743 ft | 6 kts | 154° |
| 2026-05-06 10:27 | 41.27768 | -8.51726 | 743 ft | 0 kts | 117° |
| 2026-05-06 10:27 | 41.27767 | -8.51726 | 743 ft | 0 kts | 118° |
| 2026-05-06 10:34 | 41.27767 | -8.51725 | 746 ft | 1 kts | 121° |
| 2026-05-06 10:34 | 41.27733 | -8.51702 | 746 ft | 9 kts | 155° |
| 2026-05-06 10:34 | 41.27661 | -8.51656 | 746 ft | 14 kts | 154° |
| 2026-05-06 10:35 | 41.27577 | -8.51593 | 745 ft | 14 kts | 148° |
| 2026-05-06 10:35 | 41.27505 | -8.51521 | 746 ft | 12 kts | 138° |
| 2026-05-06 10:35 | 41.27448 | -8.51449 | 746 ft | 11 kts | 135° |
| 2026-05-06 10:35 | 41.27384 | -8.51359 | 746 ft | 16 kts | 131° |
| 2026-05-06 10:36 | 41.27300 | -8.51302 | 743 ft | 15 kts | 153° |
| 2026-05-06 10:36 | 41.27216 | -8.51234 | 745 ft | 13 kts | 150° |
| 2026-05-06 10:36 | 41.27205 | -8.51271 | 745 ft | 13 kts | 335° |
| 2026-05-06 10:36 | 41.27499 | -8.51458 | 758 ft | 72 kts | 336° |
| 2026-05-06 10:37 | 41.28005 | -8.51760 | 961 ft | 85 kts | 337° |
| 2026-05-06 10:37 | 41.28570 | -8.52064 | 1207 ft | 92 kts | 339° |
| 2026-05-06 10:37 | 41.29121 | -8.52392 | 1355 ft | 87 kts | 335° |
| 2026-05-06 10:37 | 41.29671 | -8.52807 | 1357 ft | 94 kts | 331° |
| 2026-05-06 10:38 | 41.30017 | -8.53509 | 1456 ft | 93 kts | 283° |
| 2026-05-06 10:38 | 41.29789 | -8.54342 | 1485 ft | 102 kts | 233° |
| 2026-05-06 10:38 | 41.29145 | -8.54734 | 1503 ft | 106 kts | 188° |
| 2026-05-06 10:38 | 41.28441 | -8.54446 | 1485 ft | 110 kts | 156° |
| 2026-05-06 10:39 | 41.28424 | -8.54434 | 1482 ft | 110 kts | 156° |